Terminal Aerodrome Forecast
Issued by NWS

Home | Current Version | Previous Version | Text Only | Print | Product List | Glossary On
Versions: 1 2 3 4 5 6 7 8 9 10 11 12 13 14 15 16 17 18 19 20 21 22
000
FTUS43 KBIS 281726
TAFDIK
TAF
KDIK 281726Z 2818/2918 26035G46KT P6SM BKN035
     FM282000 26035G50KT P6SM BKN035
     FM290200 29020G30KT P6SM SCT050
     FM290800 27018KT P6SM FEW070
     FM291500 29025G34KT P6SM SCT100=

USA.gov is the U.S. government's official web portal to all federal, state and local government web resources and services.